sensor_id;sensor_type;location;lat;lon;timestamp;temperature;humidity
35962;DHT22;22044;48.298;10.008;2024-02-21T00:02:17;4.00;99.90
35962;DHT22;22044;48.298;10.008;2024-02-21T00:05:03;4.10;99.90
35962;DHT22;22044;48.298;10.008;2024-02-21T00:07:49;4.10;99.90
35962;DHT22;22044;48.298;10.008;2024-02-21T00:10:36;4.10;99.90
35962;DHT22;22044;48.298;10.008;2024-02-21T00:13:22;4.20;99.90
35962;DHT22;22044;48.298;10.008;2024-02-21T00:16:09;4.20;99.90
35962;DHT22;22044;48.298;10.008;2024-02-21T00:18:55;4.30;99.90
35962;DHT22;22044;48.298;10.008;2024-02-21T00:21:40;4.30;99.90
35962;DHT22;22044;48.298;10.008;2024-02-21T00:24:26;4.20;99.90
35962;DHT22;22044;48.298;10.008;2024-02-21T00:27:13;4.20;99.90
35962;DHT22;22044;48.298;10.008;2024-02-21T00:29:59;4.20;99.90
35962;DHT22;22044;48.298;10.008;2024-02-21T00:32:45;4.20;99.90
35962;DHT22;22044;48.298;10.008;2024-02-21T00:35:31;4.20;99.90
35962;DHT22;22044;48.298;10.008;2024-02-21T00:38:16;4.30;99.90
35962;DHT22;22044;48.298;10.008;2024-02-21T00:41:02;4.20;99.90
35962;DHT22;22044;48.298;10.008;2024-02-21T00:43:49;4.20;99.90
35962;DHT22;22044;48.298;10.008;2024-02-21T00:46:35;4.30;99.90
35962;DHT22;22044;48.298;10.008;2024-02-21T00:49:22;4.30;99.90
35962;DHT22;22044;48.298;10.008;2024-02-21T00:52:08;4.30;99.90
35962;DHT22;22044;48.298;10.008;2024-02-21T00:54:56;4.30;99.90
35962;DHT22;22044;48.298;10.008;2024-02-21T00:58:07;4.30;99.90
35962;DHT22;22044;48.298;10.008;2024-02-21T01:00:54;4.30;99.90
35962;DHT22;22044;48.298;10.008;2024-02-21T01:03:40;4.30;99.90
35962;DHT22;22044;48.298;10.008;2024-02-21T01:06:26;4.30;99.90
35962;DHT22;22044;48.298;10.008;2024-02-21T01:09:12;4.30;99.90
35962;DHT22;22044;48.298;10.008;2024-02-21T01:11:58;4.30;99.90
35962;DHT22;22044;48.298;10.008;2024-02-21T01:14:44;4.30;99.90
35962;DHT22;22044;48.298;10.008;2024-02-21T01:17:31;4.30;99.90
35962;DHT22;22044;48.298;10.008;2024-02-21T01:20:17;4.40;99.90
35962;DHT22;22044;48.298;10.008;2024-02-21T01:23:03;4.40;99.90
35962;DHT22;22044;48.298;10.008;2024-02-21T01:25:49;4.40;99.90
35962;DHT22;22044;48.298;10.008;2024-02-21T01:28:35;4.50;99.90
35962;DHT22;22044;48.298;10.008;2024-02-21T01:31:21;4.50;99.90
35962;DHT22;22044;48.298;10.008;2024-02-21T01:34:08;4.40;99.90
35962;DHT22;22044;48.298;10.008;2024-02-21T01:36:54;4.40;99.90
35962;DHT22;22044;48.298;10.008;2024-02-21T01:39:40;4.30;99.90
35962;DHT22;22044;48.298;10.008;2024-02-21T01:42:25;4.10;99.90
35962;DHT22;22044;48.298;10.008;2024-02-21T01:45:11;4.00;99.90
35962;DHT22;22044;48.298;10.008;2024-02-21T01:47:57;4.10;99.90
35962;DHT22;22044;48.298;10.008;2024-02-21T01:50:44;4.00;99.90
35962;DHT22;22044;48.298;10.008;2024-02-21T01:53:32;3.90;99.90
35962;DHT22;22044;48.298;10.008;2024-02-21T01:56:19;3.80;99.90
35962;DHT22;22044;48.298;10.008;2024-02-21T01:59:05;3.80;99.90
35962;DHT22;22044;48.298;10.008;2024-02-21T02:01:52;3.80;99.90
35962;DHT22;22044;48.298;10.008;2024-02-21T02:04:38;3.90;99.90
35962;DHT22;22044;48.298;10.008;2024-02-21T02:07:26;4.00;99.90
35962;DHT22;22044;48.298;10.008;2024-02-21T02:10:12;4.10;99.90
35962;DHT22;22044;48.298;10.008;2024-02-21T02:12:57;4.10;99.90
35962;DHT22;22044;48.298;10.008;2024-02-21T02:15:45;4.20;99.90
35962;DHT22;22044;48.298;10.008;2024-02-21T02:18:31;4.20;99.90
35962;DHT22;22044;48.298;10.008;2024-02-21T02:21:23;4.30;99.90
35962;DHT22;22044;48.298;10.008;2024-02-21T02:24:13;4.30;99.90
35962;DHT22;22044;48.298;10.008;2024-02-21T02:26:59;4.30;99.90
35962;DHT22;22044;48.298;10.008;2024-02-21T02:29:45;4.40;99.90
35962;DHT22;22044;48.298;10.008;2024-02-21T02:32:31;4.40;99.90
35962;DHT22;22044;48.298;10.008;2024-02-21T02:35:17;4.30;99.90
35962;DHT22;22044;48.298;10.008;2024-02-21T02:38:03;4.40;99.90
35962;DHT22;22044;48.298;10.008;2024-02-21T02:40:50;4.40;99.90
35962;DHT22;22044;48.298;10.008;2024-02-21T02:43:35;4.40;99.90
35962;DHT22;22044;48.298;10.008;2024-02-21T02:46:21;4.40;99.90
35962;DHT22;22044;48.298;10.008;2024-02-21T02:49:07;4.40;99.90
35962;DHT22;22044;48.298;10.008;2024-02-21T02:51:53;4.40;99.90
35962;DHT22;22044;48.298;10.008;2024-02-21T02:54:39;4.30;99.90
35962;DHT22;22044;48.298;10.008;2024-02-21T02:57:26;4.30;99.90
35962;DHT22;22044;48.298;10.008;2024-02-21T03:00:13;4.30;99.90
35962;DHT22;22044;48.298;10.008;2024-02-21T03:02:59;4.40;99.90
35962;DHT22;22044;48.298;10.008;2024-02-21T03:05:46;4.40;99.90
35962;DHT22;22044;48.298;10.008;2024-02-21T03:08:31;4.40;99.90
35962;DHT22;22044;48.298;10.008;2024-02-21T03:11:18;4.40;99.90
35962;DHT22;22044;48.298;10.008;2024-02-21T03:14:05;4.40;99.90
35962;DHT22;22044;48.298;10.008;2024-02-21T03:16:52;4.30;99.90
35962;DHT22;22044;48.298;10.008;2024-02-21T03:19:38;4.30;99.90
35962;DHT22;22044;48.298;10.008;2024-02-21T03:22:23;4.20;99.90
35962;DHT22;22044;48.298;10.008;2024-02-21T03:25:09;4.20;99.90
35962;DHT22;22044;48.298;10.008;2024-02-21T03:27:55;4.10;99.90
35962;DHT22;22044;48.298;10.008;2024-02-21T03:30:42;4.20;99.90
35962;DHT22;22044;48.298;10.008;2024-02-21T03:33:28;4.20;99.90
35962;DHT22;22044;48.298;10.008;2024-02-21T03:36:13;4.30;99.90
35962;DHT22;22044;48.298;10.008;2024-02-21T03:38:59;4.30;99.90
35962;DHT22;22044;48.298;10.008;2024-02-21T03:41:45;4.20;99.90
35962;DHT22;22044;48.298;10.008;2024-02-21T03:44:31;4.20;99.90
35962;DHT22;22044;48.298;10.008;2024-02-21T03:47:19;4.10;99.90
35962;DHT22;22044;48.298;10.008;2024-02-21T03:50:05;4.30;99.90
35962;DHT22;22044;48.298;10.008;2024-02-21T03:52:51;4.30;99.90
35962;DHT22;22044;48.298;10.008;2024-02-21T03:55:37;4.20;99.90
35962;DHT22;22044;48.298;10.008;2024-02-21T03:58:23;4.20;99.90
35962;DHT22;22044;48.298;10.008;2024-02-21T04:01:08;4.20;99.90
35962;DHT22;22044;48.298;10.008;2024-02-21T04:03:56;4.20;99.90
35962;DHT22;22044;48.298;10.008;2024-02-21T04:06:46;4.10;99.90
35962;DHT22;22044;48.298;10.008;2024-02-21T04:09:32;4.10;99.90
35962;DHT22;22044;48.298;10.008;2024-02-21T04:12:18;4.10;99.90
35962;DHT22;22044;48.298;10.008;2024-02-21T04:15:04;4.10;99.90
35962;DHT22;22044;48.298;10.008;2024-02-21T04:17:50;4.20;99.90
35962;DHT22;22044;48.298;10.008;2024-02-21T04:20:39;4.10;99.90
35962;DHT22;22044;48.298;10.008;2024-02-21T04:23:25;4.00;99.90
35962;DHT22;22044;48.298;10.008;2024-02-21T04:26:13;4.00;99.90
35962;DHT22;22044;48.298;10.008;2024-02-21T04:28:58;4.00;99.90
35962;DHT22;22044;48.298;10.008;2024-02-21T04:31:44;4.00;99.90
35962;DHT22;22044;48.298;10.008;2024-02-21T04:34:30;3.90;99.90
35962;DHT22;22044;48.298;10.008;2024-02-21T04:37:17;3.90;99.90
35962;DHT22;22044;48.298;10.008;2024-02-21T04:40:04;3.90;99.90
35962;DHT22;22044;48.298;10.008;2024-02-21T04:42:49;3.90;99.90
35962;DHT22;22044;48.298;10.008;2024-02-21T04:45:35;3.80;99.90
35962;DHT22;22044;48.298;10.008;2024-02-21T04:48:21;3.80;99.90
35962;DHT22;22044;48.298;10.008;2024-02-21T04:51:07;3.80;99.90
35962;DHT22;22044;48.298;10.008;2024-02-21T04:53:54;3.80;99.90
35962;DHT22;22044;48.298;10.008;2024-02-21T04:56:39;3.80;99.90
35962;DHT22;22044;48.298;10.008;2024-02-21T04:59:25;3.80;99.90
35962;DHT22;22044;48.298;10.008;2024-02-21T05:02:11;3.90;99.90
35962;DHT22;22044;48.298;10.008;2024-02-21T05:04:57;4.00;99.90
35962;DHT22;22044;48.298;10.008;2024-02-21T05:07:42;4.00;99.90
35962;DHT22;22044;48.298;10.008;2024-02-21T05:10:29;3.90;99.90
35962;DHT22;22044;48.298;10.008;2024-02-21T05:13:15;3.90;99.90
35962;DHT22;22044;48.298;10.008;2024-02-21T05:16:01;3.90;99.90
35962;DHT22;22044;48.298;10.008;2024-02-21T05:18:47;3.80;99.90
35962;DHT22;22044;48.298;10.008;2024-02-21T05:21:33;3.80;99.90
35962;DHT22;22044;48.298;10.008;2024-02-21T05:24:18;3.70;99.90
35962;DHT22;22044;48.298;10.008;2024-02-21T05:27:06;3.60;99.90
35962;DHT22;22044;48.298;10.008;2024-02-21T05:29:53;3.60;99.90
35962;DHT22;22044;48.298;10.008;2024-02-21T05:32:38;3.50;99.90
35962;DHT22;22044;48.298;10.008;2024-02-21T05:35:27;3.50;99.90
35962;DHT22;22044;48.298;10.008;2024-02-21T05:38:13;3.50;99.90
35962;DHT22;22044;48.298;10.008;2024-02-21T05:40:58;3.50;99.90
35962;DHT22;22044;48.298;10.008;2024-02-21T05:43:45;3.60;99.90
35962;DHT22;22044;48.298;10.008;2024-02-21T05:46:31;3.70;99.90
35962;DHT22;22044;48.298;10.008;2024-02-21T05:49:17;3.80;99.90
35962;DHT22;22044;48.298;10.008;2024-02-21T05:52:03;3.70;99.90
35962;DHT22;22044;48.298;10.008;2024-02-21T05:54:50;3.80;99.90
35962;DHT22;22044;48.298;10.008;2024-02-21T05:57:36;3.80;99.90
35962;DHT22;22044;48.298;10.008;2024-02-21T06:00:23;3.90;99.90
35962;DHT22;22044;48.298;10.008;2024-02-21T06:03:09;3.90;99.90
35962;DHT22;22044;48.298;10.008;2024-02-21T06:05:55;3.80;99.90
35962;DHT22;22044;48.298;10.008;2024-02-21T06:08:41;3.80;99.90
35962;DHT22;22044;48.298;10.008;2024-02-21T06:11:27;3.80;99.90
35962;DHT22;22044;48.298;10.008;2024-02-21T06:14:13;3.70;99.90
35962;DHT22;22044;48.298;10.008;2024-02-21T06:17:00;3.80;99.90
35962;DHT22;22044;48.298;10.008;2024-02-21T06:19:46;3.60;99.90
35962;DHT22;22044;48.298;10.008;2024-02-21T06:22:32;3.70;99.90
35962;DHT22;22044;48.298;10.008;2024-02-21T06:25:18;3.50;99.90
35962;DHT22;22044;48.298;10.008;2024-02-21T06:28:04;3.40;99.90
35962;DHT22;22044;48.298;10.008;2024-02-21T06:30:50;3.40;99.90
35962;DHT22;22044;48.298;10.008;2024-02-21T06:33:37;3.30;99.90
35962;DHT22;22044;48.298;10.008;2024-02-21T06:36:22;3.30;99.90
35962;DHT22;22044;48.298;10.008;2024-02-21T06:39:08;3.30;99.90
35962;DHT22;22044;48.298;10.008;2024-02-21T06:41:55;3.20;99.90
35962;DHT22;22044;48.298;10.008;2024-02-21T06:44:41;3.20;99.90
35962;DHT22;22044;48.298;10.008;2024-02-21T06:47:27;3.20;99.90
35962;DHT22;22044;48.298;10.008;2024-02-21T06:50:15;3.30;99.90
35962;DHT22;22044;48.298;10.008;2024-02-21T06:53:01;3.40;99.90
35962;DHT22;22044;48.298;10.008;2024-02-21T06:55:48;3.50;99.90
35962;DHT22;22044;48.298;10.008;2024-02-21T06:58:34;3.60;99.90
35962;DHT22;22044;48.298;10.008;2024-02-21T07:01:23;3.70;99.90
35962;DHT22;22044;48.298;10.008;2024-02-21T07:04:11;3.70;99.90
35962;DHT22;22044;48.298;10.008;2024-02-21T07:06:58;3.80;99.90
35962;DHT22;22044;48.298;10.008;2024-02-21T07:09:43;3.90;99.90
35962;DHT22;22044;48.298;10.008;2024-02-21T07:12:32;3.90;99.90
35962;DHT22;22044;48.298;10.008;2024-02-21T07:15:19;4.00;99.90
35962;DHT22;22044;48.298;10.008;2024-02-21T07:18:05;4.10;99.90
35962;DHT22;22044;48.298;10.008;2024-02-21T07:20:51;4.20;99.90
35962;DHT22;22044;48.298;10.008;2024-02-21T07:23:40;4.20;99.90
35962;DHT22;22044;48.298;10.008;2024-02-21T07:26:26;4.20;99.90
35962;DHT22;22044;48.298;10.008;2024-02-21T07:29:12;4.30;99.90
35962;DHT22;22044;48.298;10.008;2024-02-21T07:31:58;4.40;99.90
35962;DHT22;22044;48.298;10.008;2024-02-21T07:34:44;4.50;99.90
35962;DHT22;22044;48.298;10.008;2024-02-21T07:37:30;4.50;99.90
35962;DHT22;22044;48.298;10.008;2024-02-21T07:40:17;4.60;99.90
35962;DHT22;22044;48.298;10.008;2024-02-21T07:43:05;4.70;99.90
35962;DHT22;22044;48.298;10.008;2024-02-21T07:45:51;4.70;99.90
35962;DHT22;22044;48.298;10.008;2024-02-21T07:48:37;4.70;99.90
35962;DHT22;22044;48.298;10.008;2024-02-21T07:51:27;4.80;99.90
35962;DHT22;22044;48.298;10.008;2024-02-21T07:54:13;4.90;99.90
35962;DHT22;22044;48.298;10.008;2024-02-21T07:57:00;5.00;99.90
35962;DHT22;22044;48.298;10.008;2024-02-21T07:59:47;5.00;99.90
35962;DHT22;22044;48.298;10.008;2024-02-21T08:02:33;5.10;99.90
35962;DHT22;22044;48.298;10.008;2024-02-21T08:05:19;5.20;99.90
35962;DHT22;22044;48.298;10.008;2024-02-21T08:08:06;5.20;99.90
35962;DHT22;22044;48.298;10.008;2024-02-21T08:10:52;5.20;99.90
35962;DHT22;22044;48.298;10.008;2024-02-21T08:13:39;5.30;99.90
35962;DHT22;22044;48.298;10.008;2024-02-21T08:16:26;5.30;99.90
35962;DHT22;22044;48.298;10.008;2024-02-21T08:19:12;5.30;99.90
35962;DHT22;22044;48.298;10.008;2024-02-21T08:21:58;5.30;99.90
35962;DHT22;22044;48.298;10.008;2024-02-21T08:24:44;5.30;99.90
35962;DHT22;22044;48.298;10.008;2024-02-21T08:27:30;5.30;99.90
35962;DHT22;22044;48.298;10.008;2024-02-21T08:30:18;5.40;99.90
35962;DHT22;22044;48.298;10.008;2024-02-21T08:33:04;5.50;99.90
35962;DHT22;22044;48.298;10.008;2024-02-21T08:36:19;5.70;99.90
35962;DHT22;22044;48.298;10.008;2024-02-21T08:39:05;5.90;99.90
35962;DHT22;22044;48.298;10.008;2024-02-21T08:41:52;6.00;99.90
35962;DHT22;22044;48.298;10.008;2024-02-21T08:44:40;6.20;99.90
35962;DHT22;22044;48.298;10.008;2024-02-21T08:47:28;6.20;99.90
35962;DHT22;22044;48.298;10.008;2024-02-21T08:50:14;6.30;99.90
35962;DHT22;22044;48.298;10.008;2024-02-21T08:53:02;6.30;99.90
35962;DHT22;22044;48.298;10.008;2024-02-21T08:55:48;6.40;99.90
35962;DHT22;22044;48.298;10.008;2024-02-21T08:58:35;6.50;99.90
35962;DHT22;22044;48.298;10.008;2024-02-21T09:01:21;6.60;99.90
35962;DHT22;22044;48.298;10.008;2024-02-21T09:04:12;6.70;99.90
35962;DHT22;22044;48.298;10.008;2024-02-21T09:06:58;6.80;99.90
35962;DHT22;22044;48.298;10.008;2024-02-21T09:09:44;6.80;99.90
35962;DHT22;22044;48.298;10.008;2024-02-21T09:12:33;6.70;99.90
35962;DHT22;22044;48.298;10.008;2024-02-21T09:15:18;6.70;99.90
35962;DHT22;22044;48.298;10.008;2024-02-21T09:18:04;6.60;99.90
35962;DHT22;22044;48.298;10.008;2024-02-21T09:20:52;6.70;99.90
35962;DHT22;22044;48.298;10.008;2024-02-21T09:23:38;6.80;99.90
35962;DHT22;22044;48.298;10.008;2024-02-21T09:26:25;6.80;99.90
35962;DHT22;22044;48.298;10.008;2024-02-21T09:29:11;6.90;99.90
35962;DHT22;22044;48.298;10.008;2024-02-21T09:31:57;6.90;99.90
35962;DHT22;22044;48.298;10.008;2024-02-21T09:34:42;7.00;99.90
35962;DHT22;22044;48.298;10.008;2024-02-21T09:37:30;7.10;99.90
35962;DHT22;22044;48.298;10.008;2024-02-21T09:40:16;7.10;99.90
35962;DHT22;22044;48.298;10.008;2024-02-21T09:43:03;7.10;99.90
35962;DHT22;22044;48.298;10.008;2024-02-21T09:45:54;7.20;99.90
35962;DHT22;22044;48.298;10.008;2024-02-21T09:48:57;7.20;99.90
35962;DHT22;22044;48.298;10.008;2024-02-21T09:51:46;7.30;99.90
35962;DHT22;22044;48.298;10.008;2024-02-21T09:54:35;7.30;99.90
35962;DHT22;22044;48.298;10.008;2024-02-21T09:57:22;7.30;99.90
35962;DHT22;22044;48.298;10.008;2024-02-21T10:00:10;7.30;99.90
35962;DHT22;22044;48.298;10.008;2024-02-21T10:02:58;7.40;99.90
35962;DHT22;22044;48.298;10.008;2024-02-21T10:05:48;7.40;99.90
35962;DHT22;22044;48.298;10.008;2024-02-21T10:08:34;7.50;99.90
35962;DHT22;22044;48.298;10.008;2024-02-21T10:11:26;7.50;99.90
35962;DHT22;22044;48.298;10.008;2024-02-21T10:14:12;7.50;99.90
35962;DHT22;22044;48.298;10.008;2024-02-21T10:17:03;7.50;99.90
35962;DHT22;22044;48.298;10.008;2024-02-21T10:19:53;7.60;99.90
35962;DHT22;22044;48.298;10.008;2024-02-21T10:22:39;7.70;99.90
35962;DHT22;22044;48.298;10.008;2024-02-21T10:25:25;7.70;99.90
35962;DHT22;22044;48.298;10.008;2024-02-21T10:28:13;7.80;99.90
35962;DHT22;22044;48.298;10.008;2024-02-21T10:31:00;8.00;99.90
35962;DHT22;22044;48.298;10.008;2024-02-21T10:33:54;8.10;99.90
35962;DHT22;22044;48.298;10.008;2024-02-21T10:36:39;8.20;99.90
35962;DHT22;22044;48.298;10.008;2024-02-21T10:39:25;8.30;99.90
35962;DHT22;22044;48.298;10.008;2024-02-21T10:42:12;8.40;99.90
35962;DHT22;22044;48.298;10.008;2024-02-21T10:45:01;8.40;99.90
35962;DHT22;22044;48.298;10.008;2024-02-21T10:47:52;8.40;99.90
35962;DHT22;22044;48.298;10.008;2024-02-21T10:50:56;8.40;99.90
35962;DHT22;22044;48.298;10.008;2024-02-21T10:53:45;8.50;99.90
35962;DHT22;22044;48.298;10.008;2024-02-21T10:56:33;8.60;99.90
35962;DHT22;22044;48.298;10.008;2024-02-21T10:59:20;8.70;99.90
35962;DHT22;22044;48.298;10.008;2024-02-21T11:02:08;8.80;99.90
35962;DHT22;22044;48.298;10.008;2024-02-21T11:04:55;8.80;99.90
35962;DHT22;22044;48.298;10.008;2024-02-21T11:07:40;8.90;99.90
35962;DHT22;22044;48.298;10.008;2024-02-21T11:10:27;9.10;99.90
35962;DHT22;22044;48.298;10.008;2024-02-21T11:13:12;9.30;99.90
35962;DHT22;22044;48.298;10.008;2024-02-21T11:16:07;9.30;99.90
35962;DHT22;22044;48.298;10.008;2024-02-21T11:19:04;9.30;99.90
35962;DHT22;22044;48.298;10.008;2024-02-21T11:21:51;9.30;99.90
35962;DHT22;22044;48.298;10.008;2024-02-21T11:24:37;9.40;99.90
35962;DHT22;22044;48.298;10.008;2024-02-21T11:27:23;9.40;99.90
35962;DHT22;22044;48.298;10.008;2024-02-21T11:30:12;9.30;99.90
35962;DHT22;22044;48.298;10.008;2024-02-21T11:33:00;9.40;99.90
35962;DHT22;22044;48.298;10.008;2024-02-21T11:35:48;9.50;99.90
35962;DHT22;22044;48.298;10.008;2024-02-21T11:38:35;9.50;99.90
35962;DHT22;22044;48.298;10.008;2024-02-21T11:41:21;9.50;99.90
35962;DHT22;22044;48.298;10.008;2024-02-21T11:44:07;9.40;99.90
35962;DHT22;22044;48.298;10.008;2024-02-21T11:46:53;9.40;99.90
35962;DHT22;22044;48.298;10.008;2024-02-21T11:49:45;9.50;99.90
35962;DHT22;22044;48.298;10.008;2024-02-21T11:52:35;9.50;99.90
35962;DHT22;22044;48.298;10.008;2024-02-21T11:55:21;9.50;99.90
35962;DHT22;22044;48.298;10.008;2024-02-21T11:58:07;9.50;99.90
35962;DHT22;22044;48.298;10.008;2024-02-21T12:00:53;9.60;99.90
35962;DHT22;22044;48.298;10.008;2024-02-21T12:03:39;9.70;99.90
35962;DHT22;22044;48.298;10.008;2024-02-21T12:06:26;9.70;99.90
35962;DHT22;22044;48.298;10.008;2024-02-21T12:09:15;9.60;99.90
35962;DHT22;22044;48.298;10.008;2024-02-21T12:12:02;9.60;99.90
35962;DHT22;22044;48.298;10.008;2024-02-21T12:14:55;9.60;99.90
35962;DHT22;22044;48.298;10.008;2024-02-21T12:17:43;9.60;99.90
35962;DHT22;22044;48.298;10.008;2024-02-21T12:20:30;9.60;99.90
35962;DHT22;22044;48.298;10.008;2024-02-21T12:23:18;9.50;99.90
35962;DHT22;22044;48.298;10.008;2024-02-21T12:26:06;9.60;99.90
35962;DHT22;22044;48.298;10.008;2024-02-21T12:28:53;9.60;99.90
35962;DHT22;22044;48.298;10.008;2024-02-21T12:31:40;9.70;99.90
35962;DHT22;22044;48.298;10.008;2024-02-21T12:34:26;9.80;99.90
35962;DHT22;22044;48.298;10.008;2024-02-21T12:37:12;9.80;99.90
35962;DHT22;22044;48.298;10.008;2024-02-21T12:40:00;9.90;99.90
35962;DHT22;22044;48.298;10.008;2024-02-21T12:42:47;10.00;99.90
35962;DHT22;22044;48.298;10.008;2024-02-21T12:45:33;10.00;99.90
35962;DHT22;22044;48.298;10.008;2024-02-21T12:48:19;10.20;99.90
35962;DHT22;22044;48.298;10.008;2024-02-21T12:51:07;10.30;99.90
35962;DHT22;22044;48.298;10.008;2024-02-21T12:53:54;10.40;99.90
35962;DHT22;22044;48.298;10.008;2024-02-21T12:56:40;10.30;99.90
35962;DHT22;22044;48.298;10.008;2024-02-21T12:59:27;10.40;99.90
35962;DHT22;22044;48.298;10.008;2024-02-21T13:02:17;10.60;99.90
35962;DHT22;22044;48.298;10.008;2024-02-21T13:05:05;10.60;99.90
35962;DHT22;22044;48.298;10.008;2024-02-21T13:07:52;10.60;99.90
35962;DHT22;22044;48.298;10.008;2024-02-21T13:10:38;10.70;99.90
35962;DHT22;22044;48.298;10.008;2024-02-21T13:13:25;10.70;99.90
35962;DHT22;22044;48.298;10.008;2024-02-21T13:16:12;10.70;99.40
35962;DHT22;22044;48.298;10.008;2024-02-21T13:18:58;10.70;98.10
35962;DHT22;22044;48.298;10.008;2024-02-21T13:21:45;10.70;96.80
35962;DHT22;22044;48.298;10.008;2024-02-21T13:24:31;10.70;94.90
35962;DHT22;22044;48.298;10.008;2024-02-21T13:27:20;10.70;96.50
35962;DHT22;22044;48.298;10.008;2024-02-21T13:30:08;10.70;97.10
35962;DHT22;22044;48.298;10.008;2024-02-21T13:32:55;10.70;96.10
35962;DHT22;22044;48.298;10.008;2024-02-21T13:35:41;10.70;95.90
35962;DHT22;22044;48.298;10.008;2024-02-21T13:38:27;10.80;95.60
35962;DHT22;22044;48.298;10.008;2024-02-21T13:41:13;10.70;95.30
35962;DHT22;22044;48.298;10.008;2024-02-21T13:43:59;10.70;95.80
35962;DHT22;22044;48.298;10.008;2024-02-21T13:46:45;10.80;96.40
35962;DHT22;22044;48.298;10.008;2024-02-21T13:49:32;10.80;96.50
35962;DHT22;22044;48.298;10.008;2024-02-21T13:52:18;10.70;96.90
35962;DHT22;22044;48.298;10.008;2024-02-21T13:55:06;10.70;96.30
35962;DHT22;22044;48.298;10.008;2024-02-21T13:57:53;10.80;96.90
35962;DHT22;22044;48.298;10.008;2024-02-21T14:00:39;10.80;96.90
35962;DHT22;22044;48.298;10.008;2024-02-21T14:03:28;10.80;96.10
35962;DHT22;22044;48.298;10.008;2024-02-21T14:06:15;10.80;95.70
35962;DHT22;22044;48.298;10.008;2024-02-21T14:09:01;10.80;95.80
35962;DHT22;22044;48.298;10.008;2024-02-21T14:11:47;10.80;95.50
35962;DHT22;22044;48.298;10.008;2024-02-21T14:14:34;10.80;96.50
35962;DHT22;22044;48.298;10.008;2024-02-21T14:17:26;10.80;95.50
35962;DHT22;22044;48.298;10.008;2024-02-21T14:20:12;10.70;94.30
35962;DHT22;22044;48.298;10.008;2024-02-21T14:22:59;10.70;94.70
35962;DHT22;22044;48.298;10.008;2024-02-21T14:25:46;10.60;95.00
35962;DHT22;22044;48.298;10.008;2024-02-21T14:28:57;10.60;95.10
35962;DHT22;22044;48.298;10.008;2024-02-21T14:32:09;10.60;95.40
35962;DHT22;22044;48.298;10.008;2024-02-21T14:34:55;10.60;95.80
35962;DHT22;22044;48.298;10.008;2024-02-21T14:37:41;10.60;95.90
35962;DHT22;22044;48.298;10.008;2024-02-21T14:40:28;10.60;96.70
35962;DHT22;22044;48.298;10.008;2024-02-21T14:43:14;10.50;96.50
35962;DHT22;22044;48.298;10.008;2024-02-21T14:46:01;10.50;96.60
35962;DHT22;22044;48.298;10.008;2024-02-21T14:48:48;10.40;96.50
35962;DHT22;22044;48.298;10.008;2024-02-21T14:51:35;10.40;96.50
35962;DHT22;22044;48.298;10.008;2024-02-21T14:54:20;10.40;95.60
35962;DHT22;22044;48.298;10.008;2024-02-21T14:57:08;10.40;96.00
35962;DHT22;22044;48.298;10.008;2024-02-21T14:59:55;10.40;96.20
35962;DHT22;22044;48.298;10.008;2024-02-21T15:02:43;10.30;95.70
35962;DHT22;22044;48.298;10.008;2024-02-21T15:05:29;10.30;96.40
35962;DHT22;22044;48.298;10.008;2024-02-21T15:08:18;10.30;96.10
35962;DHT22;22044;48.298;10.008;2024-02-21T15:11:04;10.30;95.10
35962;DHT22;22044;48.298;10.008;2024-02-21T15:13:51;10.20;95.70
35962;DHT22;22044;48.298;10.008;2024-02-21T15:16:37;10.20;96.10
35962;DHT22;22044;48.298;10.008;2024-02-21T15:19:24;10.20;97.60
35962;DHT22;22044;48.298;10.008;2024-02-21T15:22:09;10.20;96.50
35962;DHT22;22044;48.298;10.008;2024-02-21T15:24:56;10.20;97.60
35962;DHT22;22044;48.298;10.008;2024-02-21T15:27:42;10.20;97.60
35962;DHT22;22044;48.298;10.008;2024-02-21T15:30:30;10.20;97.40
35962;DHT22;22044;48.298;10.008;2024-02-21T15:33:17;10.10;98.10
35962;DHT22;22044;48.298;10.008;2024-02-21T15:36:03;10.10;99.80
35962;DHT22;22044;48.298;10.008;2024-02-21T15:38:49;10.00;99.90
35962;DHT22;22044;48.298;10.008;2024-02-21T15:41:35;10.00;99.90
35962;DHT22;22044;48.298;10.008;2024-02-21T15:44:20;10.00;99.90
35962;DHT22;22044;48.298;10.008;2024-02-21T15:47:08;9.90;99.90
35962;DHT22;22044;48.298;10.008;2024-02-21T15:49:54;9.90;99.90
35962;DHT22;22044;48.298;10.008;2024-02-21T15:52:39;9.90;99.90
35962;DHT22;22044;48.298;10.008;2024-02-21T15:55:25;9.90;99.90
35962;DHT22;22044;48.298;10.008;2024-02-21T15:58:12;9.80;99.90
35962;DHT22;22044;48.298;10.008;2024-02-21T16:00:58;9.80;99.90
35962;DHT22;22044;48.298;10.008;2024-02-21T16:03:46;9.80;99.90
35962;DHT22;22044;48.298;10.008;2024-02-21T16:06:33;9.70;99.90
35962;DHT22;22044;48.298;10.008;2024-02-21T16:09:18;9.70;99.90
35962;DHT22;22044;48.298;10.008;2024-02-21T16:12:05;9.60;99.90
35962;DHT22;22044;48.298;10.008;2024-02-21T16:14:53;9.60;99.90
35962;DHT22;22044;48.298;10.008;2024-02-21T16:17:38;9.50;99.90
35962;DHT22;22044;48.298;10.008;2024-02-21T16:20:26;9.50;99.90
35962;DHT22;22044;48.298;10.008;2024-02-21T16:23:12;9.50;99.90
35962;DHT22;22044;48.298;10.008;2024-02-21T16:25:58;9.40;99.90
35962;DHT22;22044;48.298;10.008;2024-02-21T16:28:45;9.30;99.90
35962;DHT22;22044;48.298;10.008;2024-02-21T16:31:31;9.20;99.90
35962;DHT22;22044;48.298;10.008;2024-02-21T16:34:17;9.10;99.90
35962;DHT22;22044;48.298;10.008;2024-02-21T16:37:05;9.10;99.90
35962;DHT22;22044;48.298;10.008;2024-02-21T16:39:51;8.90;99.90
35962;DHT22;22044;48.298;10.008;2024-02-21T16:42:37;8.90;99.90
35962;DHT22;22044;48.298;10.008;2024-02-21T16:45:24;8.80;99.90
35962;DHT22;22044;48.298;10.008;2024-02-21T16:48:09;8.70;99.90
35962;DHT22;22044;48.298;10.008;2024-02-21T16:50:55;8.60;99.90
35962;DHT22;22044;48.298;10.008;2024-02-21T16:53:42;8.40;99.90
35962;DHT22;22044;48.298;10.008;2024-02-21T16:56:28;8.40;99.90
35962;DHT22;22044;48.298;10.008;2024-02-21T16:59:14;8.30;99.90
35962;DHT22;22044;48.298;10.008;2024-02-21T17:02:00;8.30;99.90
35962;DHT22;22044;48.298;10.008;2024-02-21T17:04:49;8.30;99.90
35962;DHT22;22044;48.298;10.008;2024-02-21T17:07:36;8.20;99.90
35962;DHT22;22044;48.298;10.008;2024-02-21T17:10:23;8.20;99.90
35962;DHT22;22044;48.298;10.008;2024-02-21T17:13:09;8.10;99.90
35962;DHT22;22044;48.298;10.008;2024-02-21T17:15:57;8.20;99.90
35962;DHT22;22044;48.298;10.008;2024-02-21T17:18:44;8.10;99.90
35962;DHT22;22044;48.298;10.008;2024-02-21T17:21:31;8.10;99.90
35962;DHT22;22044;48.298;10.008;2024-02-21T17:24:17;8.00;99.90
35962;DHT22;22044;48.298;10.008;2024-02-21T17:27:05;8.00;99.90
35962;DHT22;22044;48.298;10.008;2024-02-21T17:29:51;8.00;99.90
35962;DHT22;22044;48.298;10.008;2024-02-21T17:32:37;8.00;99.90